sensor_id;sensor_type;location;lat;lon;timestamp;P1;durP1;ratioP1;P2;durP2;ratioP2
22211;SDS011;11275;52.488;13.462;2022-11-15T00:02:10;25.27;;;20.02;;
22211;SDS011;11275;52.488;13.462;2022-11-15T00:04:36;28.35;;;21.25;;
22211;SDS011;11275;52.488;13.462;2022-11-15T00:07:02;27.50;;;19.98;;
22211;SDS011;11275;52.488;13.462;2022-11-15T00:09:27;31.67;;;22.85;;
22211;SDS011;11275;52.488;13.462;2022-11-15T00:11:53;31.02;;;22.52;;
22211;SDS011;11275;52.488;13.462;2022-11-15T00:14:18;29.10;;;21.42;;
22211;SDS011;11275;52.488;13.462;2022-11-15T00:16:44;29.38;;;21.30;;
22211;SDS011;11275;52.488;13.462;2022-11-15T00:19:10;31.70;;;22.42;;
22211;SDS011;11275;52.488;13.462;2022-11-15T00:21:35;30.10;;;22.70;;
22211;SDS011;11275;52.488;13.462;2022-11-15T00:24:01;25.13;;;19.48;;
22211;SDS011;11275;52.488;13.462;2022-11-15T00:26:26;28.02;;;20.80;;
22211;SDS011;11275;52.488;13.462;2022-11-15T00:28:52;28.02;;;21.15;;
22211;SDS011;11275;52.488;13.462;2022-11-15T00:31:18;30.33;;;22.00;;
22211;SDS011;11275;52.488;13.462;2022-11-15T00:33:43;28.23;;;20.88;;
22211;SDS011;11275;52.488;13.462;2022-11-15T00:36:10;28.33;;;21.05;;
22211;SDS011;11275;52.488;13.462;2022-11-15T00:38:36;28.55;;;21.98;;
22211;SDS011;11275;52.488;13.462;2022-11-15T00:41:04;30.17;;;21.55;;
22211;SDS011;11275;52.488;13.462;2022-11-15T00:43:31;27.92;;;21.23;;
22211;SDS011;11275;52.488;13.462;2022-11-15T00:45:57;30.90;;;22.10;;
22211;SDS011;11275;52.488;13.462;2022-11-15T00:48:23;31.50;;;22.95;;
22211;SDS011;11275;52.488;13.462;2022-11-15T00:50:49;33.95;;;23.15;;
22211;SDS011;11275;52.488;13.462;2022-11-15T00:53:15;30.45;;;21.13;;
22211;SDS011;11275;52.488;13.462;2022-11-15T00:55:41;30.33;;;22.85;;
22211;SDS011;11275;52.488;13.462;2022-11-15T00:58:07;28.30;;;21.67;;
22211;SDS011;11275;52.488;13.462;2022-11-15T01:00:32;30.95;;;21.65;;
22211;SDS011;11275;52.488;13.462;2022-11-15T01:02:59;29.60;;;22.58;;
22211;SDS011;11275;52.488;13.462;2022-11-15T01:05:26;32.08;;;22.80;;
22211;SDS011;11275;52.488;13.462;2022-11-15T01:07:53;31.33;;;21.98;;
22211;SDS011;11275;52.488;13.462;2022-11-15T01:10:19;30.02;;;22.40;;
22211;SDS011;11275;52.488;13.462;2022-11-15T01:12:45;27.83;;;20.88;;
22211;SDS011;11275;52.488;13.462;2022-11-15T01:15:11;30.60;;;21.55;;
22211;SDS011;11275;52.488;13.462;2022-11-15T01:17:36;30.75;;;22.23;;
22211;SDS011;11275;52.488;13.462;2022-11-15T01:20:03;28.08;;;20.17;;
22211;SDS011;11275;52.488;13.462;2022-11-15T01:22:29;25.48;;;19.65;;
22211;SDS011;11275;52.488;13.462;2022-11-15T01:24:54;28.05;;;20.15;;
22211;SDS011;11275;52.488;13.462;2022-11-15T01:27:20;29.92;;;20.70;;
22211;SDS011;11275;52.488;13.462;2022-11-15T01:29:46;27.70;;;20.25;;
22211;SDS011;11275;52.488;13.462;2022-11-15T01:32:12;28.75;;;21.20;;
22211;SDS011;11275;52.488;13.462;2022-11-15T01:34:37;26.02;;;19.05;;
22211;SDS011;11275;52.488;13.462;2022-11-15T01:37:03;24.23;;;19.20;;
22211;SDS011;11275;52.488;13.462;2022-11-15T01:39:29;26.17;;;19.10;;
22211;SDS011;11275;52.488;13.462;2022-11-15T01:41:54;25.00;;;18.67;;
22211;SDS011;11275;52.488;13.462;2022-11-15T01:47:12;27.48;;;19.48;;
22211;SDS011;11275;52.488;13.462;2022-11-15T01:49:56;25.90;;;19.27;;
22211;SDS011;11275;52.488;13.462;2022-11-15T01:52:29;24.40;;;17.42;;
22211;SDS011;11275;52.488;13.462;2022-11-15T01:55:14;24.13;;;18.13;;
22211;SDS011;11275;52.488;13.462;2022-11-15T01:57:45;25.80;;;18.40;;
22211;SDS011;11275;52.488;13.462;2022-11-15T02:00:14;24.45;;;18.38;;
22211;SDS011;11275;52.488;13.462;2022-11-15T02:02:40;24.05;;;17.70;;
22211;SDS011;11275;52.488;13.462;2022-11-15T02:05:06;27.48;;;20.52;;
22211;SDS011;11275;52.488;13.462;2022-11-15T02:07:32;23.25;;;18.30;;
22211;SDS011;11275;52.488;13.462;2022-11-15T02:10:02;25.05;;;18.88;;
22211;SDS011;11275;52.488;13.462;2022-11-15T02:12:37;28.05;;;19.88;;
22211;SDS011;11275;52.488;13.462;2022-11-15T02:15:04;26.83;;;19.08;;
22211;SDS011;11275;52.488;13.462;2022-11-15T02:17:48;25.65;;;18.73;;
22211;SDS011;11275;52.488;13.462;2022-11-15T02:28:16;26.48;;;19.40;;
22211;SDS011;11275;52.488;13.462;2022-11-15T02:31:05;28.15;;;20.85;;
22211;SDS011;11275;52.488;13.462;2022-11-15T02:41:52;26.15;;;19.23;;
22211;SDS011;11275;52.488;13.462;2022-11-15T02:47:03;26.70;;;19.80;;
22211;SDS011;11275;52.488;13.462;2022-11-15T02:49:42;29.95;;;20.33;;
22211;SDS011;11275;52.488;13.462;2022-11-15T02:52:15;27.23;;;19.73;;
22211;SDS011;11275;52.488;13.462;2022-11-15T02:54:55;24.98;;;19.02;;
22211;SDS011;11275;52.488;13.462;2022-11-15T02:57:45;24.88;;;19.00;;
22211;SDS011;11275;52.488;13.462;2022-11-15T03:00:12;24.52;;;18.02;;
22211;SDS011;11275;52.488;13.462;2022-11-15T03:05:41;24.60;;;17.35;;
22211;SDS011;11275;52.488;13.462;2022-11-15T03:11:16;26.27;;;19.80;;
22211;SDS011;11275;52.488;13.462;2022-11-15T03:13:54;28.20;;;19.55;;
22211;SDS011;11275;52.488;13.462;2022-11-15T03:16:44;27.03;;;19.23;;
22211;SDS011;11275;52.488;13.462;2022-11-15T03:21:47;25.00;;;18.55;;
22211;SDS011;11275;52.488;13.462;2022-11-15T03:24:14;30.33;;;20.38;;
22211;SDS011;11275;52.488;13.462;2022-11-15T03:26:42;30.08;;;21.35;;
22211;SDS011;11275;52.488;13.462;2022-11-15T03:29:30;27.98;;;20.40;;
22211;SDS011;11275;52.488;13.462;2022-11-15T03:32:03;27.90;;;20.27;;
22211;SDS011;11275;52.488;13.462;2022-11-15T03:37:25;29.35;;;21.55;;
22211;SDS011;11275;52.488;13.462;2022-11-15T03:40:05;29.77;;;21.60;;
22211;SDS011;11275;52.488;13.462;2022-11-15T03:42:54;28.63;;;20.38;;
22211;SDS011;11275;52.488;13.462;2022-11-15T03:45:58;29.00;;;21.23;;
22211;SDS011;11275;52.488;13.462;2022-11-15T03:48:21;31.55;;;21.55;;
22211;SDS011;11275;52.488;13.462;2022-11-15T03:50:50;29.08;;;21.02;;
22211;SDS011;11275;52.488;13.462;2022-11-15T03:53:16;26.67;;;20.48;;
22211;SDS011;11275;52.488;13.462;2022-11-15T03:55:42;30.02;;;20.40;;
22211;SDS011;11275;52.488;13.462;2022-11-15T03:58:08;26.58;;;19.95;;
22211;SDS011;11275;52.488;13.462;2022-11-15T04:00:34;30.70;;;21.35;;
22211;SDS011;11275;52.488;13.462;2022-11-15T04:02:59;27.13;;;19.98;;
22211;SDS011;11275;52.488;13.462;2022-11-15T04:05:25;27.98;;;20.55;;
22211;SDS011;11275;52.488;13.462;2022-11-15T04:07:51;28.50;;;20.70;;
22211;SDS011;11275;52.488;13.462;2022-11-15T04:10:16;30.75;;;22.25;;
22211;SDS011;11275;52.488;13.462;2022-11-15T04:12:43;28.55;;;20.75;;
22211;SDS011;11275;52.488;13.462;2022-11-15T04:15:13;30.25;;;21.65;;
22211;SDS011;11275;52.488;13.462;2022-11-15T04:17:42;31.17;;;21.90;;
22211;SDS011;11275;52.488;13.462;2022-11-15T04:20:22;31.33;;;22.85;;
22211;SDS011;11275;52.488;13.462;2022-11-15T04:23:12;32.25;;;21.65;;
22211;SDS011;11275;52.488;13.462;2022-11-15T04:25:58;28.60;;;19.85;;
22211;SDS011;11275;52.488;13.462;2022-11-15T04:28:26;28.20;;;20.35;;
22211;SDS011;11275;52.488;13.462;2022-11-15T04:30:52;26.30;;;19.52;;
22211;SDS011;11275;52.488;13.462;2022-11-15T04:33:17;30.02;;;20.85;;
22211;SDS011;11275;52.488;13.462;2022-11-15T04:35:43;26.30;;;19.35;;
22211;SDS011;11275;52.488;13.462;2022-11-15T04:38:29;26.63;;;20.17;;
22211;SDS011;11275;52.488;13.462;2022-11-15T04:40:55;31.48;;;21.80;;
22211;SDS011;11275;52.488;13.462;2022-11-15T04:43:20;34.42;;;22.45;;
22211;SDS011;11275;52.488;13.462;2022-11-15T04:45:46;27.88;;;20.70;;
22211;SDS011;11275;52.488;13.462;2022-11-15T04:48:11;32.00;;;22.15;;
22211;SDS011;11275;52.488;13.462;2022-11-15T04:50:37;33.30;;;22.35;;
22211;SDS011;11275;52.488;13.462;2022-11-15T04:53:03;31.27;;;22.45;;
22211;SDS011;11275;52.488;13.462;2022-11-15T04:55:28;31.67;;;23.17;;
22211;SDS011;11275;52.488;13.462;2022-11-15T04:58:00;31.02;;;21.98;;
22211;SDS011;11275;52.488;13.462;2022-11-15T05:00:28;32.85;;;22.38;;
22211;SDS011;11275;52.488;13.462;2022-11-15T05:02:54;30.85;;;21.77;;
22211;SDS011;11275;52.488;13.462;2022-11-15T05:05:39;35.63;;;24.83;;
22211;SDS011;11275;52.488;13.462;2022-11-15T05:08:05;30.67;;;21.58;;
22211;SDS011;11275;52.488;13.462;2022-11-15T05:10:31;27.58;;;20.02;;
22211;SDS011;11275;52.488;13.462;2022-11-15T05:12:56;26.05;;;19.10;;
22211;SDS011;11275;52.488;13.462;2022-11-15T05:15:22;28.75;;;20.63;;
22211;SDS011;11275;52.488;13.462;2022-11-15T05:17:48;30.40;;;21.55;;
22211;SDS011;11275;52.488;13.462;2022-11-15T05:20:13;32.58;;;21.52;;
22211;SDS011;11275;52.488;13.462;2022-11-15T05:22:39;27.73;;;20.60;;
22211;SDS011;11275;52.488;13.462;2022-11-15T05:25:05;28.80;;;20.20;;
22211;SDS011;11275;52.488;13.462;2022-11-15T05:27:32;33.58;;;22.05;;
22211;SDS011;11275;52.488;13.462;2022-11-15T05:29:58;31.98;;;22.00;;
22211;SDS011;11275;52.488;13.462;2022-11-15T05:32:24;33.95;;;22.58;;
22211;SDS011;11275;52.488;13.462;2022-11-15T05:34:50;30.85;;;21.63;;
22211;SDS011;11275;52.488;13.462;2022-11-15T05:37:16;32.25;;;22.77;;
22211;SDS011;11275;52.488;13.462;2022-11-15T05:39:42;62.00;;;39.75;;
22211;SDS011;11275;52.488;13.462;2022-11-15T05:44:41;43.40;;;30.38;;
22211;SDS011;11275;52.488;13.462;2022-11-15T05:47:11;36.25;;;23.58;;
22211;SDS011;11275;52.488;13.462;2022-11-15T05:49:40;34.70;;;23.50;;
22211;SDS011;11275;52.488;13.462;2022-11-15T05:52:09;32.78;;;22.70;;
22211;SDS011;11275;52.488;13.462;2022-11-15T05:54:36;34.72;;;23.20;;
22211;SDS011;11275;52.488;13.462;2022-11-15T05:57:03;30.48;;;22.58;;
22211;SDS011;11275;52.488;13.462;2022-11-15T05:59:30;33.00;;;21.92;;
22211;SDS011;11275;52.488;13.462;2022-11-15T06:01:56;30.25;;;22.27;;
22211;SDS011;11275;52.488;13.462;2022-11-15T06:04:22;34.08;;;24.58;;
22211;SDS011;11275;52.488;13.462;2022-11-15T06:06:48;24.48;;;19.20;;
22211;SDS011;11275;52.488;13.462;2022-11-15T06:09:13;29.70;;;20.55;;
22211;SDS011;11275;52.488;13.462;2022-11-15T06:11:39;31.02;;;20.77;;
22211;SDS011;11275;52.488;13.462;2022-11-15T06:14:05;28.63;;;20.55;;
22211;SDS011;11275;52.488;13.462;2022-11-15T06:16:30;28.75;;;21.35;;
22211;SDS011;11275;52.488;13.462;2022-11-15T06:18:56;27.83;;;20.70;;
22211;SDS011;11275;52.488;13.462;2022-11-15T06:21:22;28.83;;;20.45;;
22211;SDS011;11275;52.488;13.462;2022-11-15T06:23:48;30.98;;;21.33;;
22211;SDS011;11275;52.488;13.462;2022-11-15T06:26:14;32.42;;;21.80;;
22211;SDS011;11275;52.488;13.462;2022-11-15T06:28:39;33.80;;;22.60;;
22211;SDS011;11275;52.488;13.462;2022-11-15T06:31:05;32.00;;;22.02;;
22211;SDS011;11275;52.488;13.462;2022-11-15T06:33:33;32.08;;;21.10;;
22211;SDS011;11275;52.488;13.462;2022-11-15T06:36:17;31.90;;;22.35;;
22211;SDS011;11275;52.488;13.462;2022-11-15T06:38:43;35.50;;;22.75;;
22211;SDS011;11275;52.488;13.462;2022-11-15T06:41:10;35.22;;;22.73;;
22211;SDS011;11275;52.488;13.462;2022-11-15T06:43:36;34.95;;;22.67;;
22211;SDS011;11275;52.488;13.462;2022-11-15T06:46:03;35.65;;;23.17;;
22211;SDS011;11275;52.488;13.462;2022-11-15T06:48:30;30.42;;;22.33;;
22211;SDS011;11275;52.488;13.462;2022-11-15T06:50:57;35.17;;;23.08;;
22211;SDS011;11275;52.488;13.462;2022-11-15T06:53:24;29.52;;;21.48;;
22211;SDS011;11275;52.488;13.462;2022-11-15T06:55:50;35.13;;;22.30;;
22211;SDS011;11275;52.488;13.462;2022-11-15T06:58:16;31.23;;;21.70;;
22211;SDS011;11275;52.488;13.462;2022-11-15T07:00:42;35.42;;;22.98;;
22211;SDS011;11275;52.488;13.462;2022-11-15T07:03:08;33.15;;;22.35;;
22211;SDS011;11275;52.488;13.462;2022-11-15T07:05:34;31.77;;;21.95;;
22211;SDS011;11275;52.488;13.462;2022-11-15T07:08:00;33.85;;;22.95;;
22211;SDS011;11275;52.488;13.462;2022-11-15T07:10:27;31.88;;;22.73;;
22211;SDS011;11275;52.488;13.462;2022-11-15T07:12:53;36.90;;;24.20;;
22211;SDS011;11275;52.488;13.462;2022-11-15T07:15:20;38.88;;;24.05;;
22211;SDS011;11275;52.488;13.462;2022-11-15T07:17:50;34.22;;;22.67;;
22211;SDS011;11275;52.488;13.462;2022-11-15T07:20:16;36.75;;;23.92;;
22211;SDS011;11275;52.488;13.462;2022-11-15T07:22:42;31.75;;;22.75;;
22211;SDS011;11275;52.488;13.462;2022-11-15T07:25:10;39.17;;;23.73;;
22211;SDS011;11275;52.488;13.462;2022-11-15T07:27:36;35.95;;;24.38;;
22211;SDS011;11275;52.488;13.462;2022-11-15T07:30:03;33.95;;;24.13;;
22211;SDS011;11275;52.488;13.462;2022-11-15T07:32:29;33.80;;;23.52;;
22211;SDS011;11275;52.488;13.462;2022-11-15T07:34:54;37.40;;;24.70;;
22211;SDS011;11275;52.488;13.462;2022-11-15T07:37:20;34.78;;;24.13;;
22211;SDS011;11275;52.488;13.462;2022-11-15T07:39:46;37.83;;;23.77;;
22211;SDS011;11275;52.488;13.462;2022-11-15T07:42:11;37.40;;;25.75;;
22211;SDS011;11275;52.488;13.462;2022-11-15T07:44:57;34.20;;;24.13;;
22211;SDS011;11275;52.488;13.462;2022-11-15T07:47:23;38.63;;;24.70;;
22211;SDS011;11275;52.488;13.462;2022-11-15T07:49:48;35.90;;;24.33;;
22211;SDS011;11275;52.488;13.462;2022-11-15T07:52:14;33.33;;;23.52;;
22211;SDS011;11275;52.488;13.462;2022-11-15T07:54:40;36.47;;;24.30;;
22211;SDS011;11275;52.488;13.462;2022-11-15T07:57:06;31.75;;;22.67;;
22211;SDS011;11275;52.488;13.462;2022-11-15T07:59:34;33.72;;;23.73;;
22211;SDS011;11275;52.488;13.462;2022-11-15T08:02:00;32.55;;;23.80;;
22211;SDS011;11275;52.488;13.462;2022-11-15T08:04:25;35.38;;;24.17;;
22211;SDS011;11275;52.488;13.462;2022-11-15T08:06:51;38.38;;;25.77;;
22211;SDS011;11275;52.488;13.462;2022-11-15T08:09:16;39.53;;;25.80;;
22211;SDS011;11275;52.488;13.462;2022-11-15T08:11:42;36.60;;;25.00;;
22211;SDS011;11275;52.488;13.462;2022-11-15T08:14:08;34.38;;;25.15;;
22211;SDS011;11275;52.488;13.462;2022-11-15T08:16:33;39.30;;;26.48;;
22211;SDS011;11275;52.488;13.462;2022-11-15T08:18:59;37.08;;;24.70;;
22211;SDS011;11275;52.488;13.462;2022-11-15T08:21:25;38.88;;;25.80;;
22211;SDS011;11275;52.488;13.462;2022-11-15T08:23:50;35.97;;;24.33;;
22211;SDS011;11275;52.488;13.462;2022-11-15T08:26:16;39.33;;;26.38;;
22211;SDS011;11275;52.488;13.462;2022-11-15T08:28:42;42.47;;;26.63;;
22211;SDS011;11275;52.488;13.462;2022-11-15T08:31:12;34.10;;;25.10;;
22211;SDS011;11275;52.488;13.462;2022-11-15T08:33:39;33.33;;;24.23;;
22211;SDS011;11275;52.488;13.462;2022-11-15T08:36:05;35.15;;;24.88;;
22211;SDS011;11275;52.488;13.462;2022-11-15T08:38:31;35.47;;;25.92;;
22211;SDS011;11275;52.488;13.462;2022-11-15T08:41:01;37.25;;;26.40;;
22211;SDS011;11275;52.488;13.462;2022-11-15T08:43:29;35.10;;;25.15;;
22211;SDS011;11275;52.488;13.462;2022-11-15T08:45:58;33.92;;;25.33;;
22211;SDS011;11275;52.488;13.462;2022-11-15T08:48:23;37.95;;;28.05;;
22211;SDS011;11275;52.488;13.462;2022-11-15T08:50:53;37.58;;;26.40;;
22211;SDS011;11275;52.488;13.462;2022-11-15T08:53:20;34.47;;;25.05;;
22211;SDS011;11275;52.488;13.462;2022-11-15T08:55:45;31.90;;;22.58;;
22211;SDS011;11275;52.488;13.462;2022-11-15T08:58:11;31.48;;;23.50;;
22211;SDS011;11275;52.488;13.462;2022-11-15T09:00:36;31.00;;;24.20;;
22211;SDS011;11275;52.488;13.462;2022-11-15T09:03:06;33.13;;;24.23;;
22211;SDS011;11275;52.488;13.462;2022-11-15T09:05:32;34.13;;;24.88;;
22211;SDS011;11275;52.488;13.462;2022-11-15T09:08:00;32.53;;;24.48;;
22211;SDS011;11275;52.488;13.462;2022-11-15T09:10:25;30.90;;;23.70;;
22211;SDS011;11275;52.488;13.462;2022-11-15T09:12:51;32.28;;;24.42;;
22211;SDS011;11275;52.488;13.462;2022-11-15T09:15:17;36.13;;;25.73;;
22211;SDS011;11275;52.488;13.462;2022-11-15T09:17:43;30.35;;;22.40;;
22211;SDS011;11275;52.488;13.462;2022-11-15T09:20:09;31.83;;;24.08;;
22211;SDS011;11275;52.488;13.462;2022-11-15T09:22:35;33.17;;;24.48;;
22211;SDS011;11275;52.488;13.462;2022-11-15T09:25:01;29.63;;;23.50;;
22211;SDS011;11275;52.488;13.462;2022-11-15T09:27:28;32.33;;;24.23;;
22211;SDS011;11275;52.488;13.462;2022-11-15T09:29:55;30.90;;;23.40;;
22211;SDS011;11275;52.488;13.462;2022-11-15T09:32:21;30.38;;;24.17;;
22211;SDS011;11275;52.488;13.462;2022-11-15T09:34:48;27.30;;;21.45;;
22211;SDS011;11275;52.488;13.462;2022-11-15T09:37:17;27.70;;;21.55;;
22211;SDS011;11275;52.488;13.462;2022-11-15T09:39:43;31.08;;;22.10;;
22211;SDS011;11275;52.488;13.462;2022-11-15T09:48:13;26.58;;;20.35;;
22211;SDS011;11275;52.488;13.462;2022-11-15T09:51:06;26.38;;;18.73;;
22211;SDS011;11275;52.488;13.462;2022-11-15T09:56:21;24.92;;;18.35;;
22211;SDS011;11275;52.488;13.462;2022-11-15T10:04:29;21.00;;;17.48;;
22211;SDS011;11275;52.488;13.462;2022-11-15T10:12:45;21.98;;;16.40;;
22211;SDS011;11275;52.488;13.462;2022-11-15T10:15:16;20.10;;;16.38;;
22211;SDS011;11275;52.488;13.462;2022-11-15T10:20:42;17.52;;;14.52;;
22211;SDS011;11275;52.488;13.462;2022-11-15T10:23:15;19.27;;;14.90;;
22211;SDS011;11275;52.488;13.462;2022-11-15T10:25:43;17.38;;;14.75;;
22211;SDS011;11275;52.488;13.462;2022-11-15T10:28:22;19.38;;;15.27;;
22211;SDS011;11275;52.488;13.462;2022-11-15T10:30:52;19.85;;;14.48;;
22211;SDS011;11275;52.488;13.462;2022-11-15T10:36:36;16.83;;;13.63;;
22211;SDS011;11275;52.488;13.462;2022-11-15T10:41:47;18.55;;;14.55;;
22211;SDS011;11275;52.488;13.462;2022-11-15T10:46:42;20.90;;;13.90;;
22211;SDS011;11275;52.488;13.462;2022-11-15T10:49:13;17.58;;;14.65;;
22211;SDS011;11275;52.488;13.462;2022-11-15T10:54:21;17.98;;;13.32;;
22211;SDS011;11275;52.488;13.462;2022-11-15T10:57:00;19.92;;;13.88;;
22211;SDS011;11275;52.488;13.462;2022-11-15T10:59:37;16.90;;;14.35;;
22211;SDS011;11275;52.488;13.462;2022-11-15T11:02:22;19.40;;;14.13;;
22211;SDS011;11275;52.488;13.462;2022-11-15T11:04:55;16.80;;;12.77;;
22211;SDS011;11275;52.488;13.462;2022-11-15T11:07:25;16.77;;;13.20;;
22211;SDS011;11275;52.488;13.462;2022-11-15T11:10:00;16.75;;;13.57;;
22211;SDS011;11275;52.488;13.462;2022-11-15T11:12:29;19.33;;;13.32;;
22211;SDS011;11275;52.488;13.462;2022-11-15T11:14:57;16.55;;;12.65;;
22211;SDS011;11275;52.488;13.462;2022-11-15T11:17:43;18.33;;;13.98;;
22211;SDS011;11275;52.488;13.462;2022-11-15T11:20:34;17.10;;;12.63;;
22211;SDS011;11275;52.488;13.462;2022-11-15T11:36:39;17.33;;;12.65;;
22211;SDS011;11275;52.488;13.462;2022-11-15T11:39:27;14.77;;;12.25;;
22211;SDS011;11275;52.488;13.462;2022-11-15T11:52:06;17.85;;;12.68;;
22211;SDS011;11275;52.488;13.462;2022-11-15T12:00:09;17.95;;;13.60;;
22211;SDS011;11275;52.488;13.462;2022-11-15T12:05:31;17.00;;;13.60;;
22211;SDS011;11275;52.488;13.462;2022-11-15T12:11:00;14.82;;;12.05;;
22211;SDS011;11275;52.488;13.462;2022-11-15T12:13:50;14.93;;;12.43;;
22211;SDS011;11275;52.488;13.462;2022-11-15T12:16:29;15.57;;;12.30;;
22211;SDS011;11275;52.488;13.462;2022-11-15T12:19:00;14.70;;;12.55;;
22211;SDS011;11275;52.488;13.462;2022-11-15T12:24:01;16.45;;;13.68;;
22211;SDS011;11275;52.488;13.462;2022-11-15T12:26:39;15.15;;;12.60;;
22211;SDS011;11275;52.488;13.462;2022-11-15T12:29:18;16.08;;;13.48;;
22211;SDS011;11275;52.488;13.462;2022-11-15T12:32:14;15.88;;;12.98;;
22211;SDS011;11275;52.488;13.462;2022-11-15T12:34:45;15.73;;;12.25;;
22211;SDS011;11275;52.488;13.462;2022-11-15T12:45:39;16.35;;;12.63;;
22211;SDS011;11275;52.488;13.462;2022-11-15T13:11:59;27.30;;;22.10;;
22211;SDS011;11275;52.488;13.462;2022-11-15T13:17:16;14.63;;;11.10;;
22211;SDS011;11275;52.488;13.462;2022-11-15T13:19:52;12.00;;;10.70;;
22211;SDS011;11275;52.488;13.462;2022-11-15T13:22:22;14.45;;;10.93;;
22211;SDS011;11275;52.488;13.462;2022-11-15T13:25:14;11.82;;;10.57;;
22211;SDS011;11275;52.488;13.462;2022-11-15T13:27:47;12.93;;;11.18;;
22211;SDS011;11275;52.488;13.462;2022-11-15T13:30:36;39.25;;;27.90;;
22211;SDS011;11275;52.488;13.462;2022-11-15T13:33:07;14.48;;;11.95;;
22211;SDS011;11275;52.488;13.462;2022-11-15T13:36:04;14.20;;;10.60;;
22211;SDS011;11275;52.488;13.462;2022-11-15T13:38:44;14.25;;;11.27;;
22211;SDS011;11275;52.488;13.462;2022-11-15T13:41:13;12.88;;;11.25;;
22211;SDS011;11275;52.488;13.462;2022-11-15T13:43:41;13.15;;;9.98;;
22211;SDS011;11275;52.488;13.462;2022-11-15T13:49:23;11.55;;;9.30;;
22211;SDS011;11275;52.488;13.462;2022-11-15T13:51:52;17.50;;;9.68;;
22211;SDS011;11275;52.488;13.462;2022-11-15T14:01:53;12.82;;;10.68;;
22211;SDS011;11275;52.488;13.462;2022-11-15T14:04:22;10.98;;;9.85;;
22211;SDS011;11275;52.488;13.462;2022-11-15T14:06:51;12.43;;;10.32;;
22211;SDS011;11275;52.488;13.462;2022-11-15T14:09:38;12.38;;;10.05;;
22211;SDS011;11275;52.488;13.462;2022-11-15T14:12:24;14.90;;;11.40;;
22211;SDS011;11275;52.488;13.462;2022-11-15T14:14:52;12.77;;;9.30;;
22211;SDS011;11275;52.488;13.462;2022-11-15T14:17:32;11.50;;;9.45;;
22211;SDS011;11275;52.488;13.462;2022-11-15T14:19:59;10.30;;;9.20;;
22211;SDS011;11275;52.488;13.462;2022-11-15T14:22:26;11.15;;;9.73;;
22211;SDS011;11275;52.488;13.462;2022-11-15T14:25:04;11.40;;;9.80;;
22211;SDS011;11275;52.488;13.462;2022-11-15T14:30:43;15.27;;;10.23;;
22211;SDS011;11275;52.488;13.462;2022-11-15T14:35:46;11.45;;;9.90;;
22211;SDS011;11275;52.488;13.462;2022-11-15T14:38:12;10.63;;;8.98;;
22211;SDS011;11275;52.488;13.462;2022-11-15T14:40:38;14.65;;;9.88;;
22211;SDS011;11275;52.488;13.462;2022-11-15T14:43:03;11.95;;;9.00;;
22211;SDS011;11275;52.488;13.462;2022-11-15T14:45:29;11.48;;;9.48;;
22211;SDS011;11275;52.488;13.462;2022-11-15T14:47:55;13.23;;;10.00;;
22211;SDS011;11275;52.488;13.462;2022-11-15T14:50:20;12.55;;;9.95;;
22211;SDS011;11275;52.488;13.462;2022-11-15T14:52:47;12.15;;;10.18;;
22211;SDS011;11275;52.488;13.462;2022-11-15T14:55:15;13.57;;;9.95;;
22211;SDS011;11275;52.488;13.462;2022-11-15T14:57:49;12.13;;;10.65;;
22211;SDS011;11275;52.488;13.462;2022-11-15T15:00:15;11.80;;;10.05;;
22211;SDS011;11275;52.488;13.462;2022-11-15T15:02:42;15.20;;;10.68;;
22211;SDS011;11275;52.488;13.462;2022-11-15T15:05:50;13.95;;;10.55;;
22211;SDS011;11275;52.488;13.462;2022-11-15T15:08:01;15.50;;;10.85;;
22211;SDS011;11275;52.488;13.462;2022-11-15T15:10:31;14.20;;;10.55;;
22211;SDS011;11275;52.488;13.462;2022-11-15T15:13:15;13.32;;;10.68;;
22211;SDS011;11275;52.488;13.462;2022-11-15T15:15:45;12.98;;;10.05;;
22211;SDS011;11275;52.488;13.462;2022-11-15T15:18:11;13.23;;;10.57;;
22211;SDS011;11275;52.488;13.462;2022-11-15T15:20:38;12.55;;;10.48;;
22211;SDS011;11275;52.488;13.462;2022-11-15T15:23:10;13.23;;;10.77;;
22211;SDS011;11275;52.488;13.462;2022-11-15T15:25:44;14.10;;;12.25;;
22211;SDS011;11275;52.488;13.462;2022-11-15T15:28:11;14.32;;;11.07;;
22211;SDS011;11275;52.488;13.462;2022-11-15T15:30:37;12.57;;;11.07;;
22211;SDS011;11275;52.488;13.462;2022-11-15T15:33:03;13.45;;;10.75;;
22211;SDS011;11275;52.488;13.462;2022-11-15T15:35:29;15.50;;;11.02;;
22211;SDS011;11275;52.488;13.462;2022-11-15T15:37:57;13.88;;;10.75;;
22211;SDS011;11275;52.488;13.462;2022-11-15T15:40:23;12.07;;;10.82;;
22211;SDS011;11275;52.488;13.462;2022-11-15T15:42:50;13.43;;;11.02;;
22211;SDS011;11275;52.488;13.462;2022-11-15T15:45:16;12.98;;;11.23;;
22211;SDS011;11275;52.488;13.462;2022-11-15T15:47:43;13.05;;;11.40;;
22211;SDS011;11275;52.488;13.462;2022-11-15T15:52:52;14.85;;;11.27;;
22211;SDS011;11275;52.488;13.462;2022-11-15T15:55:20;17.10;;;12.13;;
22211;SDS011;11275;52.488;13.462;2022-11-15T15:57:47;14.95;;;11.73;;
22211;SDS011;11275;52.488;13.462;2022-11-15T16:00:13;14.38;;;11.55;;
22211;SDS011;11275;52.488;13.462;2022-11-15T16:02:40;14.30;;;11.88;;
22211;SDS011;11275;52.488;13.462;2022-11-15T16:05:06;18.17;;;11.85;;
22211;SDS011;11275;52.488;13.462;2022-11-15T16:07:33;13.55;;;11.65;;
22211;SDS011;11275;52.488;13.462;2022-11-15T16:09:59;14.10;;;11.60;;
22211;SDS011;11275;52.488;13.462;2022-11-15T16:12:24;17.52;;;12.02;;
22211;SDS011;11275;52.488;13.462;2022-11-15T16:14:57;16.17;;;11.85;;
22211;SDS011;11275;52.488;13.462;2022-11-15T16:17:24;14.73;;;11.95;;
22211;SDS011;11275;52.488;13.462;2022-11-15T16:19:51;14.98;;;12.73;;
22211;SDS011;11275;52.488;13.462;2022-11-15T16:22:17;13.95;;;11.02;;
22211;SDS011;11275;52.488;13.462;2022-11-15T16:24:43;15.80;;;13.00;;
22211;SDS011;11275;52.488;13.462;2022-11-15T16:27:15;18.15;;;13.27;;
22211;SDS011;11275;52.488;13.462;2022-11-15T16:29:43;17.50;;;12.60;;
22211;SDS011;11275;52.488;13.462;2022-11-15T16:32:09;17.73;;;12.88;;
22211;SDS011;11275;52.488;13.462;2022-11-15T16:34:35;17.48;;;13.75;;
22211;SDS011;11275;52.488;13.462;2022-11-15T16:37:01;18.55;;;13.63;;
22211;SDS011;11275;52.488;13.462;2022-11-15T16:39:27;17.67;;;15.00;;
22211;SDS011;11275;52.488;13.462;2022-11-15T16:41:55;18.25;;;15.90;;
22211;SDS011;11275;52.488;13.462;2022-11-15T16:44:21;18.55;;;15.73;;
22211;SDS011;11275;52.488;13.462;2022-11-15T16:46:49;21.65;;;16.58;;
22211;SDS011;11275;52.488;13.462;2022-11-15T16:49:18;20.80;;;18.00;;
22211;SDS011;11275;52.488;13.462;2022-11-15T16:51:45;26.88;;;18.15;;
22211;SDS011;11275;52.488;13.462;2022-11-15T16:54:12;22.50;;;18.23;;
22211;SDS011;11275;52.488;13.462;2022-11-15T16:56:38;22.98;;;18.58;;
22211;SDS011;11275;52.488;13.462;2022-11-15T16:59:04;25.27;;;19.67;;
22211;SDS011;11275;52.488;13.462;2022-11-15T17:01:31;23.05;;;18.17;;
22211;SDS011;11275;52.488;13.462;2022-11-15T17:04:01;22.30;;;18.95;;